createdAt,value
2022-10-16T00:01:40.675Z,11.45
2022-10-16T00:04:07.602Z,8.15
2022-10-16T00:06:34.398Z,9.70
2022-10-16T00:09:01.241Z,8.18
2022-10-16T00:11:34.280Z,8.65
2022-10-16T00:14:02.860Z,14.40
2022-10-16T00:16:30.431Z,8.30
2022-10-16T00:18:58.033Z,11.05
2022-10-16T00:21:27.280Z,9.13
2022-10-16T00:24:13.018Z,8.75
2022-10-16T00:26:41.085Z,15.30
2022-10-16T00:29:08.161Z,9.60
2022-10-16T00:31:35.084Z,9.25
2022-10-16T00:34:02.481Z,9.48
2022-10-16T00:36:29.592Z,14.13
2022-10-16T00:41:34.306Z,13.73
2022-10-16T00:44:04.163Z,9.05
2022-10-16T00:46:38.233Z,8.98
2022-10-16T00:49:14.083Z,11.32
2022-10-16T00:51:42.340Z,9.02
2022-10-16T00:54:14.311Z,9.55
2022-10-16T00:56:42.257Z,7.88
2022-10-16T00:59:20.350Z,8.75
2022-10-16T01:01:47.554Z,13.13
2022-10-16T01:04:14.681Z,9.35
2022-10-16T01:07:00.070Z,7.93
2022-10-16T01:09:38.109Z,15.45
2022-10-16T01:12:10.914Z,6.75
2022-10-16T01:14:46.885Z,7.47
2022-10-16T01:17:22.335Z,18.73
2022-10-16T01:20:15.124Z,8.55
2022-10-16T01:22:57.095Z,7.47
2022-10-16T01:25:40.708Z,7.22
2022-10-16T01:28:13.099Z,11.18
2022-10-16T01:30:43.018Z,9.52
2022-10-16T01:33:19.223Z,6.97
2022-10-16T01:35:53.361Z,8.07
2022-10-16T01:38:41.419Z,6.78
2022-10-16T01:41:39.121Z,9.70
2022-10-16T01:44:11.068Z,6.07
2022-10-16T01:49:09.142Z,10.75
2022-10-16T01:51:38.105Z,7.32
2022-10-16T01:54:09.019Z,6.85
2022-10-16T01:56:37.833Z,10.40
2022-10-16T01:59:12.540Z,5.45
2022-10-16T02:01:43.522Z,11.70
2022-10-16T02:04:17.521Z,10.00
2022-10-16T02:06:44.527Z,9.90
2022-10-16T02:09:11.923Z,11.80
2022-10-16T02:11:38.840Z,7.97
2022-10-16T02:14:07.389Z,9.07
2022-10-16T02:16:43.132Z,8.77
2022-10-16T02:19:14.183Z,6.55
2022-10-16T02:21:45.941Z,11.52
2022-10-16T02:24:41.579Z,9.52
2022-10-16T02:27:19.164Z,12.23
2022-10-16T02:29:59.710Z,9.20
2022-10-16T02:32:31.863Z,8.90
2022-10-16T02:35:00.710Z,7.65
2022-10-16T02:37:29.031Z,7.60
2022-10-16T02:39:58.999Z,9.95
2022-10-16T02:42:31.031Z,7.65
2022-10-16T02:47:24.669Z,8.70
2022-10-16T02:49:51.517Z,11.52
2022-10-16T02:52:18.465Z,6.93
2022-10-16T02:54:45.269Z,10.48
2022-10-16T02:57:12.755Z,11.77
2022-10-16T02:59:39.747Z,11.02
2022-10-16T03:02:06.676Z,7.25
2022-10-16T03:04:33.585Z,6.55
2022-10-16T03:07:00.402Z,7.32
2022-10-16T03:09:27.282Z,8.95
2022-10-16T03:11:54.149Z,7.00
2022-10-16T03:14:21.081Z,6.03
2022-10-16T03:16:48.051Z,6.85
2022-10-16T03:19:14.872Z,7.53
2022-10-16T03:21:41.734Z,11.40
2022-10-16T03:24:08.595Z,12.82
2022-10-16T03:26:35.510Z,15.45
2022-10-16T03:29:04.287Z,19.45
2022-10-16T03:31:31.581Z,28.50
2022-10-16T03:33:58.436Z,19.20
2022-10-16T03:36:25.406Z,22.83
2022-10-16T03:38:52.175Z,15.38
2022-10-16T03:41:19.130Z,11.32
2022-10-16T03:43:45.988Z,13.45
2022-10-16T03:46:12.788Z,14.77
2022-10-16T03:48:40.892Z,16.33
2022-10-16T03:51:07.755Z,11.63
2022-10-16T03:53:35.620Z,12.70
2022-10-16T03:56:02.510Z,15.30
2022-10-16T03:58:29.548Z,13.88
2022-10-16T04:00:56.364Z,18.30
2022-10-16T04:03:23.992Z,16.98
2022-10-16T04:05:51.563Z,14.38
2022-10-16T04:08:19.238Z,28.02
2022-10-16T04:10:46.403Z,25.98
2022-10-16T04:13:13.823Z,37.05
2022-10-16T04:15:40.773Z,42.83
2022-10-16T04:18:07.963Z,38.05
2022-10-16T04:20:35.406Z,35.63
2022-10-16T04:23:02.271Z,29.77
2022-10-16T04:25:29.114Z,30.67
2022-10-16T04:27:56.604Z,27.70
2022-10-16T04:30:24.325Z,33.78
2022-10-16T04:32:52.507Z,43.38
2022-10-16T04:35:21.700Z,29.65
2022-10-16T04:37:49.117Z,27.15
2022-10-16T04:40:16.981Z,21.50
2022-10-16T04:42:44.138Z,22.52
2022-10-16T04:45:13.483Z,14.07
2022-10-16T04:47:43.349Z,21.45
2022-10-16T04:50:10.227Z,9.90
2022-10-16T04:52:37.834Z,11.77
2022-10-16T04:55:05.152Z,10.50
2022-10-16T04:57:32.303Z,9.48
2022-10-16T04:59:59.103Z,13.13
2022-10-16T05:02:26.162Z,14.02
2022-10-16T05:04:53.132Z,12.10
2022-10-16T05:07:19.937Z,9.38
2022-10-16T05:09:46.785Z,13.18
2022-10-16T05:12:13.667Z,11.85
2022-10-16T05:14:40.578Z,9.30
2022-10-16T05:17:07.518Z,8.10
2022-10-16T05:19:34.790Z,12.55
2022-10-16T05:22:02.144Z,12.80
2022-10-16T05:24:28.997Z,12.77
2022-10-16T05:26:56.076Z,11.98
2022-10-16T05:29:23.840Z,9.82
2022-10-16T05:31:53.043Z,12.38
2022-10-16T05:34:21.585Z,10.38
2022-10-16T05:36:48.721Z,16.23
2022-10-16T05:39:17.176Z,9.55
2022-10-16T05:41:44.855Z,9.65
2022-10-16T05:44:13.058Z,13.43
2022-10-16T05:46:40.564Z,11.68
2022-10-16T05:49:07.500Z,9.02
2022-10-16T05:51:35.628Z,8.60
2022-10-16T05:54:02.630Z,9.90
2022-10-16T05:56:30.162Z,9.90
2022-10-16T05:58:57.391Z,12.25
2022-10-16T06:01:25.470Z,30.92
2022-10-16T06:03:53.427Z,15.15
2022-10-16T06:06:29.575Z,15.95
2022-10-16T06:08:57.704Z,17.02
2022-10-16T06:11:29.153Z,10.38
2022-10-16T06:13:58.909Z,17.33
2022-10-16T06:16:27.272Z,15.52
2022-10-16T06:18:56.896Z,7.70
2022-10-16T06:21:26.681Z,12.00
2022-10-16T06:23:55.397Z,11.20
2022-10-16T06:26:25.163Z,9.77
2022-10-16T06:28:52.846Z,11.48
2022-10-16T06:31:20.050Z,6.00
2022-10-16T06:33:51.554Z,7.28
2022-10-16T06:36:19.184Z,8.48
2022-10-16T06:38:46.540Z,8.07
2022-10-16T06:41:18.970Z,10.32
2022-10-16T06:43:46.478Z,8.55
2022-10-16T06:46:15.620Z,8.02
2022-10-16T06:48:43.600Z,9.85
2022-10-16T06:51:13.080Z,10.55
2022-10-16T06:54:01.922Z,12.32
2022-10-16T06:56:32.303Z,8.23
2022-10-16T06:59:00.127Z,9.80
2022-10-16T07:01:27.588Z,9.65
2022-10-16T07:03:54.898Z,6.43
2022-10-16T07:06:24.183Z,10.07
2022-10-16T07:08:51.981Z,7.88
2022-10-16T07:11:22.068Z,8.85
2022-10-16T07:13:54.989Z,9.05
2022-10-16T07:16:26.925Z,14.75
2022-10-16T07:18:59.625Z,8.88
2022-10-16T07:21:30.596Z,10.48
2022-10-16T07:23:59.866Z,17.00
2022-10-16T07:26:29.366Z,7.45
2022-10-16T07:28:58.223Z,7.22
2022-10-16T07:31:26.623Z,10.00
2022-10-16T07:33:55.841Z,15.38
2022-10-16T07:36:24.569Z,9.38
2022-10-16T07:38:54.190Z,7.22
2022-10-16T07:41:24.419Z,9.32
2022-10-16T07:43:53.545Z,9.75
2022-10-16T07:46:22.740Z,7.55
2022-10-16T07:48:50.089Z,8.80
2022-10-16T07:51:25.411Z,9.30
2022-10-16T07:53:53.809Z,9.20
2022-10-16T07:56:22.017Z,8.63
2022-10-16T07:58:51.289Z,10.20
2022-10-16T08:01:19.321Z,15.65
2022-10-16T08:03:52.450Z,8.02
2022-10-16T08:06:25.213Z,10.27
2022-10-16T08:08:56.892Z,13.15
2022-10-16T08:11:24.541Z,15.32
2022-10-16T08:13:54.658Z,14.10
2022-10-16T08:16:23.215Z,13.05
2022-10-16T08:18:52.324Z,9.20
2022-10-16T08:21:24.404Z,10.98
2022-10-16T08:23:55.054Z,9.40
2022-10-16T08:26:26.189Z,10.98
2022-10-16T08:28:53.491Z,11.18
2022-10-16T08:31:21.772Z,10.73
2022-10-16T08:33:49.008Z,10.82
2022-10-16T08:36:17.661Z,11.82
2022-10-16T08:38:44.843Z,8.98
2022-10-16T08:41:21.101Z,12.52
2022-10-16T08:44:20.151Z,10.80
2022-10-16T08:46:53.147Z,13.50
2022-10-16T08:49:20.333Z,12.88
2022-10-16T08:51:49.806Z,13.57
2022-10-16T08:54:41.811Z,11.48
2022-10-16T08:57:23.121Z,19.23
2022-10-16T08:59:52.265Z,10.10
2022-10-16T09:02:25.870Z,13.65
2022-10-16T09:05:19.724Z,11.65
2022-10-16T09:07:52.398Z,17.92
2022-10-16T09:13:13.778Z,15.88
2022-10-16T09:15:45.030Z,17.48
2022-10-16T09:18:39.367Z,10.70
2022-10-16T09:21:20.849Z,8.13
2022-10-16T09:23:49.216Z,16.92
2022-10-16T09:26:17.965Z,11.55
2022-10-16T09:28:46.119Z,13.85
2022-10-16T09:31:22.338Z,15.23
2022-10-16T09:33:56.250Z,13.38
2022-10-16T09:36:26.323Z,8.15
2022-10-16T09:39:07.050Z,16.40
2022-10-16T09:41:38.459Z,16.53
2022-10-16T09:44:17.568Z,13.98
2022-10-16T09:46:44.555Z,16.20
2022-10-16T09:49:26.338Z,19.45
2022-10-16T09:54:31.499Z,22.30
2022-10-16T09:57:08.749Z,10.80
2022-10-16T09:59:47.956Z,11.57
2022-10-16T10:02:16.909Z,14.88
2022-10-16T10:04:50.920Z,9.52
2022-10-16T10:07:22.454Z,12.00
2022-10-16T10:09:49.450Z,17.70
2022-10-16T10:12:28.830Z,13.05
2022-10-16T10:14:58.997Z,10.00
2022-10-16T10:17:29.786Z,11.00
2022-10-16T10:20:01.958Z,12.95
2022-10-16T10:22:47.821Z,12.65
2022-10-16T10:25:14.864Z,8.90
2022-10-16T10:27:44.995Z,10.65
2022-10-16T10:30:49.395Z,12.63
2022-10-16T10:33:32.819Z,16.55
2022-10-16T10:36:14.821Z,7.18
2022-10-16T10:38:48.357Z,15.18
2022-10-16T10:41:54.057Z,13.80
2022-10-16T10:44:46.142Z,11.18
2022-10-16T10:47:48.571Z,14.32
2022-10-16T10:50:27.699Z,8.90
2022-10-16T10:53:10.509Z,8.15
2022-10-16T10:55:47.435Z,6.97
2022-10-16T10:58:36.291Z,7.75
2022-10-16T11:01:13.095Z,9.20
2022-10-16T11:04:13.173Z,10.00
2022-10-16T11:07:01.914Z,7.00
2022-10-16T11:09:37.792Z,7.07
2022-10-16T11:12:35.790Z,15.32
2022-10-16T11:15:13.772Z,6.25
2022-10-16T11:17:51.533Z,9.65
2022-10-16T11:20:24.188Z,9.38
2022-10-16T11:22:57.722Z,7.03
2022-10-16T11:25:29.151Z,7.65
2022-10-16T11:28:02.858Z,5.53
2022-10-16T11:30:34.619Z,6.28
2022-10-16T11:33:16.658Z,8.10
2022-10-16T11:36:24.962Z,5.70
2022-10-16T11:39:10.582Z,6.97
2022-10-16T11:41:37.364Z,9.80
2022-10-16T11:44:41.873Z,5.57
2022-10-16T11:47:57.568Z,7.47
2022-10-16T11:50:32.492Z,9.10
2022-10-16T11:53:32.577Z,8.68
2022-10-16T11:55:59.465Z,5.88
2022-10-16T11:58:29.847Z,7.03
2022-10-16T12:00:59.714Z,7.57
2022-10-16T12:03:58.051Z,10.38
2022-10-16T12:06:52.186Z,13.20
2022-10-16T12:09:31.504Z,6.50
2022-10-16T12:11:59.265Z,5.57
2022-10-16T12:14:57.430Z,11.00
2022-10-16T12:17:37.898Z,6.50
2022-10-16T12:20:14.965Z,9.80
2022-10-16T12:22:48.947Z,6.70
2022-10-16T12:25:47.594Z,7.15
2022-10-16T12:28:22.616Z,8.15
2022-10-16T12:30:59.167Z,6.70
2022-10-16T12:33:35.204Z,8.73
2022-10-16T12:36:06.119Z,7.13
2022-10-16T12:38:52.011Z,17.10
2022-10-16T12:41:45.261Z,6.32
2022-10-16T12:44:25.183Z,11.65
2022-10-16T12:46:52.034Z,10.45
2022-10-16T12:49:33.580Z,14.82
2022-10-16T12:52:01.429Z,7.10
2022-10-16T12:54:36.462Z,6.05
2022-10-16T12:57:28.116Z,9.57
2022-10-16T13:02:34.455Z,8.70
2022-10-16T13:05:15.734Z,8.93
2022-10-16T13:08:12.745Z,10.80
2022-10-16T13:10:39.629Z,14.70
2022-10-16T13:13:06.562Z,7.72
2022-10-16T13:15:53.170Z,7.35
2022-10-16T13:18:32.042Z,7.07
2022-10-16T13:21:05.045Z,8.80
2022-10-16T13:23:43.912Z,6.95
2022-10-16T13:26:19.991Z,8.00
2022-10-16T13:28:47.397Z,8.57
2022-10-16T13:31:26.315Z,11.90
2022-10-16T13:33:56.850Z,8.70
2022-10-16T13:36:36.851Z,6.22
2022-10-16T13:39:18.181Z,11.02
2022-10-16T13:41:46.098Z,4.97
2022-10-16T13:44:21.808Z,9.45
2022-10-16T13:47:23.126Z,4.82
2022-10-16T13:50:15.340Z,5.07
2022-10-16T13:52:43.894Z,11.65
2022-10-16T13:55:13.600Z,10.10
2022-10-16T13:57:40.919Z,6.60
2022-10-16T14:00:31.570Z,15.23
2022-10-16T14:03:04.667Z,11.53
2022-10-16T14:05:32.217Z,10.90
2022-10-16T14:08:00.049Z,8.18
2022-10-16T14:10:31.060Z,6.80
2022-10-16T14:12:59.255Z,7.40
2022-10-16T14:15:26.701Z,7.05
2022-10-16T14:17:54.566Z,9.00
2022-10-16T14:20:28.297Z,5.45
2022-10-16T14:23:05.821Z,9.43
2022-10-16T14:25:37.449Z,9.48
2022-10-16T14:28:11.066Z,9.45
2022-10-16T14:30:38.900Z,6.18
2022-10-16T14:33:21.227Z,7.47
2022-10-16T14:36:19.821Z,7.38
2022-10-16T14:39:19.930Z,8.50
2022-10-16T14:41:51.922Z,6.75
2022-10-16T14:44:21.547Z,18.90
2022-10-16T14:46:48.927Z,9.45
2022-10-16T14:49:21.997Z,15.45
2022-10-16T14:51:49.951Z,11.88
2022-10-16T14:54:20.086Z,10.30
2022-10-16T14:56:55.760Z,9.73
2022-10-16T14:59:36.801Z,13.88
2022-10-16T15:02:18.853Z,16.75
2022-10-16T15:04:47.643Z,24.88
2022-10-16T15:07:15.084Z,23.63
2022-10-16T15:09:48.041Z,18.35
2022-10-16T15:12:17.932Z,22.13
2022-10-16T15:14:45.246Z,17.75
2022-10-16T15:17:14.616Z,18.60
2022-10-16T15:19:43.842Z,13.45
2022-10-16T15:22:13.306Z,17.30
2022-10-16T15:24:40.601Z,9.85
2022-10-16T15:27:07.750Z,13.52
2022-10-16T15:29:34.628Z,11.57
2022-10-16T15:32:02.064Z,12.13
2022-10-16T15:34:31.060Z,13.60
2022-10-16T15:36:59.464Z,9.80
2022-10-16T15:39:26.352Z,17.25
2022-10-16T15:41:54.282Z,15.75
2022-10-16T15:44:24.828Z,11.13
2022-10-16T15:46:55.630Z,17.77
2022-10-16T15:49:23.886Z,33.35
2022-10-16T15:51:53.830Z,23.00
2022-10-16T15:54:22.881Z,22.25
2022-10-16T15:56:50.361Z,15.68
2022-10-16T15:59:17.427Z,17.90
2022-10-16T16:01:44.543Z,17.33
2022-10-16T16:04:31.867Z,20.63
2022-10-16T16:06:59.131Z,19.92
2022-10-16T16:09:26.319Z,23.55
2022-10-16T16:11:53.541Z,24.67
2022-10-16T16:14:20.633Z,25.65
2022-10-16T16:16:47.926Z,19.30
2022-10-16T16:19:17.454Z,28.85
2022-10-16T16:21:46.396Z,20.63
2022-10-16T16:24:14.539Z,24.40
2022-10-16T16:26:44.404Z,21.10
2022-10-16T16:29:16.605Z,20.88
2022-10-16T16:31:44.257Z,28.35
2022-10-16T16:34:19.864Z,24.95
2022-10-16T16:36:47.912Z,17.98
2022-10-16T16:39:16.031Z,32.38
2022-10-16T16:41:46.749Z,27.70
2022-10-16T16:44:15.296Z,25.45
2022-10-16T16:46:44.648Z,23.05
2022-10-16T16:49:13.837Z,17.55
2022-10-16T16:51:41.009Z,19.70
2022-10-16T16:54:09.257Z,24.13
2022-10-16T16:56:36.538Z,24.35
2022-10-16T16:59:06.136Z,29.10
2022-10-16T17:01:33.850Z,25.15
2022-10-16T17:04:02.321Z,21.17
2022-10-16T17:06:30.692Z,18.38
2022-10-16T17:08:58.489Z,16.20
2022-10-16T17:11:28.557Z,14.10
2022-10-16T17:13:58.531Z,16.23
2022-10-16T17:16:29.993Z,18.67
2022-10-16T17:19:03.073Z,14.80
2022-10-16T17:21:34.450Z,13.02
2022-10-16T17:24:03.116Z,18.90
2022-10-16T17:26:31.549Z,15.90
2022-10-16T17:29:02.650Z,20.20
2022-10-16T17:31:34.200Z,16.70
2022-10-16T17:34:05.206Z,18.20
2022-10-16T17:36:35.882Z,15.48
2022-10-16T17:39:08.800Z,15.98
2022-10-16T17:41:37.044Z,15.52
2022-10-16T17:44:05.392Z,18.65
2022-10-16T17:46:36.827Z,16.48
2022-10-16T17:49:07.175Z,13.57
2022-10-16T17:51:34.470Z,18.77
2022-10-16T17:54:01.808Z,12.75
2022-10-16T17:56:29.819Z,16.90
2022-10-16T17:59:00.182Z,14.88
2022-10-16T18:01:33.814Z,15.35
2022-10-16T18:04:04.834Z,20.15
2022-10-16T18:06:32.805Z,14.67
2022-10-16T18:09:00.498Z,23.08
2022-10-16T18:11:28.491Z,19.95
2022-10-16T18:13:58.361Z,19.05
2022-10-16T18:16:28.677Z,20.50
2022-10-16T18:18:57.493Z,21.20
2022-10-16T18:21:29.715Z,24.65
2022-10-16T18:23:59.555Z,25.08
2022-10-16T18:26:28.120Z,41.53
2022-10-16T18:28:57.600Z,25.63
2022-10-16T18:31:29.349Z,24.83
2022-10-16T18:33:59.449Z,25.02
2022-10-16T18:36:31.009Z,34.63
2022-10-16T18:39:00.022Z,38.70
2022-10-16T18:41:28.319Z,43.10
2022-10-16T18:43:59.034Z,57.85
2022-10-16T18:46:26.417Z,54.58
2022-10-16T18:48:56.817Z,48.58
2022-10-16T18:51:30.416Z,36.03
2022-10-16T18:54:01.516Z,32.65
2022-10-16T18:56:30.484Z,38.20
2022-10-16T18:59:00.692Z,38.08
2022-10-16T19:01:31.036Z,23.15
2022-10-16T19:04:04.499Z,21.90
2022-10-16T19:06:35.933Z,19.85
2022-10-16T19:09:03.706Z,20.80
2022-10-16T19:11:31.192Z,10.73
2022-10-16T19:13:58.933Z,13.60
2022-10-16T19:16:29.512Z,12.88
2022-10-16T19:18:58.965Z,11.65
2022-10-16T19:21:27.775Z,12.75
2022-10-16T19:23:59.569Z,16.75
2022-10-16T19:26:29.557Z,15.35
2022-10-16T19:28:58.903Z,13.35
2022-10-16T19:31:28.844Z,14.10
2022-10-16T19:33:59.188Z,15.20
2022-10-16T19:36:31.982Z,12.95
2022-10-16T19:39:07.645Z,16.25
2022-10-16T19:41:36.941Z,16.30
2022-10-16T19:44:06.590Z,19.92
2022-10-16T19:46:34.446Z,22.85
2022-10-16T19:49:05.243Z,12.48
2022-10-16T19:51:32.719Z,11.65
2022-10-16T19:54:07.742Z,9.05
2022-10-16T19:56:36.113Z,10.07
2022-10-16T19:59:04.593Z,15.70
2022-10-16T20:01:33.005Z,11.80
2022-10-16T20:04:01.157Z,8.65
2022-10-16T20:06:28.669Z,7.45
2022-10-16T20:08:58.243Z,21.08
2022-10-16T20:11:28.819Z,22.33
2022-10-16T20:13:56.174Z,27.00
2022-10-16T20:16:23.390Z,21.83
2022-10-16T20:18:51.814Z,17.65
2022-10-16T20:21:22.360Z,18.15
2022-10-16T20:23:51.112Z,20.65
2022-10-16T20:26:20.518Z,14.63
2022-10-16T20:28:47.510Z,16.42
2022-10-16T20:31:19.771Z,14.45
2022-10-16T20:33:46.953Z,15.90
2022-10-16T20:36:15.181Z,16.17
2022-10-16T20:38:43.127Z,14.48
2022-10-16T20:41:10.735Z,11.10
2022-10-16T20:43:41.263Z,13.15
2022-10-16T20:46:13.327Z,12.65
2022-10-16T20:51:33.025Z,19.15
2022-10-16T20:54:03.443Z,13.02
2022-10-16T20:56:32.577Z,11.35
2022-10-16T20:59:00.077Z,15.52
2022-10-16T21:01:29.224Z,9.60
2022-10-16T21:04:01.864Z,11.45
2022-10-16T21:06:29.466Z,10.85
2022-10-16T21:08:56.519Z,8.88
2022-10-16T21:11:27.944Z,12.68
2022-10-16T21:13:57.461Z,9.88
2022-10-16T21:16:25.073Z,12.18
2022-10-16T21:18:53.285Z,10.60
2022-10-16T21:21:26.060Z,11.52
2022-10-16T21:23:53.549Z,10.85
2022-10-16T21:26:28.222Z,8.40
2022-10-16T21:29:04.848Z,7.35
2022-10-16T21:31:32.513Z,9.50
2022-10-16T21:33:59.748Z,13.23
2022-10-16T21:36:32.294Z,8.05
2022-10-16T21:39:06.210Z,10.32
2022-10-16T21:41:34.486Z,6.13
2022-10-16T21:44:01.945Z,9.70
2022-10-16T21:46:31.671Z,7.68
2022-10-16T21:49:01.559Z,14.10
2022-10-16T21:51:31.321Z,15.13
2022-10-16T21:53:58.095Z,12.98
2022-10-16T21:56:24.928Z,13.45
2022-10-16T21:58:52.269Z,13.50
2022-10-16T22:01:23.050Z,14.20
2022-10-16T22:03:50.703Z,15.75
2022-10-16T22:08:48.458Z,13.95
2022-10-16T22:11:22.062Z,14.35
2022-10-16T22:13:56.386Z,12.52
2022-10-16T22:16:26.017Z,15.73
2022-10-16T22:18:54.806Z,19.75
2022-10-16T22:21:21.661Z,14.38
2022-10-16T22:23:48.530Z,13.50
2022-10-16T22:26:15.916Z,18.52
2022-10-16T22:28:42.912Z,14.82
2022-10-16T22:31:12.017Z,17.58
2022-10-16T22:33:39.602Z,18.33
2022-10-16T22:36:10.424Z,18.05
2022-10-16T22:38:37.877Z,12.30
2022-10-16T22:41:06.741Z,16.42
2022-10-16T22:43:38.935Z,15.57
2022-10-16T22:46:10.034Z,15.30
2022-10-16T22:48:37.434Z,26.43
2022-10-16T22:51:06.154Z,33.97
2022-10-16T22:53:33.612Z,24.80
2022-10-16T22:56:00.501Z,22.55
2022-10-16T22:58:27.603Z,14.13
2022-10-16T23:00:54.632Z,13.35
2022-10-16T23:03:21.592Z,17.08
2022-10-16T23:05:48.503Z,14.20
2022-10-16T23:08:15.761Z,17.52
2022-10-16T23:10:44.719Z,11.63
2022-10-16T23:13:12.144Z,17.10
2022-10-16T23:15:40.572Z,10.13
2022-10-16T23:18:07.863Z,8.70
2022-10-16T23:20:35.160Z,7.13
2022-10-16T23:23:02.085Z,6.57
2022-10-16T23:25:28.956Z,9.65
2022-10-16T23:27:56.120Z,19.55
2022-10-16T23:30:23.176Z,21.67
2022-10-16T23:32:50.021Z,13.18
2022-10-16T23:35:16.825Z,11.07
2022-10-16T23:37:43.836Z,9.68
2022-10-16T23:40:11.140Z,12.13
2022-10-16T23:42:37.910Z,14.75
2022-10-16T23:45:05.803Z,11.98
2022-10-16T23:47:32.566Z,14.82
2022-10-16T23:49:59.505Z,13.38
2022-10-16T23:52:26.423Z,12.05
2022-10-16T23:54:53.238Z,9.95
2022-10-16T23:57:19.988Z,13.30
2022-10-16T23:59:46.840Z,6.68
